createdAt,value
2022-08-19T00:01:53.799Z,20.30
2022-08-19T00:04:26.172Z,20.40
2022-08-19T00:06:54.919Z,20.40
2022-08-19T00:09:24.392Z,20.40
2022-08-19T00:11:52.990Z,20.40
2022-08-19T00:14:22.698Z,20.40
2022-08-19T00:16:52.345Z,20.30
2022-08-19T00:19:20.190Z,20.20
2022-08-19T00:21:49.428Z,20.20
2022-08-19T00:24:17.553Z,20.10
2022-08-19T00:26:46.233Z,20.10
2022-08-19T00:29:16.398Z,20.20
2022-08-19T00:31:44.952Z,20.20
2022-08-19T00:34:13.434Z,20.20
2022-08-19T00:36:41.937Z,20.10
2022-08-19T00:39:12.046Z,20.20
2022-08-19T00:41:40.115Z,20.20
2022-08-19T00:44:11.161Z,20.20
2022-08-19T00:46:41.074Z,20.10
2022-08-19T00:49:15.350Z,20.10
2022-08-19T00:51:44.366Z,20.10
2022-08-19T00:54:14.134Z,20.00
2022-08-19T00:56:42.879Z,20.00
2022-08-19T00:59:11.652Z,20.00
2022-08-19T01:01:40.748Z,20.00
2022-08-19T01:04:09.364Z,19.90
2022-08-19T01:06:39.195Z,19.80
2022-08-19T01:09:07.790Z,19.80
2022-08-19T01:11:41.422Z,19.80
2022-08-19T01:14:10.135Z,19.70
2022-08-19T01:16:41.096Z,19.70
2022-08-19T01:19:15.253Z,19.80
2022-08-19T01:21:49.939Z,19.70
2022-08-19T01:24:19.221Z,19.70
2022-08-19T01:26:47.962Z,19.80
2022-08-19T01:29:17.134Z,19.80
2022-08-19T01:31:44.914Z,19.90
2022-08-19T01:34:12.774Z,19.80
2022-08-19T01:36:46.702Z,19.70
2022-08-19T01:39:18.123Z,19.80
2022-08-19T01:41:47.339Z,19.80
2022-08-19T01:44:19.351Z,19.70
2022-08-19T01:46:49.070Z,19.70
2022-08-19T01:49:18.586Z,19.70
2022-08-19T01:51:46.633Z,19.70
2022-08-19T01:54:23.383Z,19.70
2022-08-19T01:57:02.049Z,19.70
2022-08-19T01:59:30.381Z,19.70
2022-08-19T02:01:58.248Z,19.70
2022-08-19T02:04:26.481Z,19.70
2022-08-19T02:06:54.365Z,19.70
2022-08-19T02:09:22.273Z,19.70
2022-08-19T02:11:50.304Z,19.60
2022-08-19T02:14:19.510Z,19.70
2022-08-19T02:16:47.332Z,19.70
2022-08-19T02:19:15.196Z,19.60
2022-08-19T02:21:44.486Z,19.60
2022-08-19T02:24:13.123Z,19.60
2022-08-19T02:26:41.112Z,19.70
2022-08-19T02:29:09.804Z,19.70
2022-08-19T02:31:38.918Z,19.80
2022-08-19T02:34:06.735Z,19.80
2022-08-19T02:36:34.573Z,19.70
2022-08-19T02:39:01.621Z,19.70
2022-08-19T02:41:31.732Z,19.80
2022-08-19T02:44:28.732Z,19.80
2022-08-19T02:46:52.576Z,19.80
2022-08-19T02:49:21.405Z,19.80
2022-08-19T02:51:49.551Z,19.80
2022-08-19T02:54:18.276Z,19.90
2022-08-19T02:56:47.378Z,19.90
2022-08-19T02:59:15.594Z,20.00
2022-08-19T03:01:44.101Z,20.00
2022-08-19T03:04:15.232Z,20.00
2022-08-19T03:06:45.977Z,20.00
2022-08-19T03:09:14.368Z,20.00
2022-08-19T03:11:42.295Z,20.10
2022-08-19T03:14:11.817Z,20.10
2022-08-19T03:16:44.812Z,20.00
2022-08-19T03:19:14.806Z,19.90
2022-08-19T03:21:45.481Z,19.80
2022-08-19T03:24:14.459Z,19.90
2022-08-19T03:26:43.358Z,19.90
2022-08-19T03:29:12.037Z,19.80
2022-08-19T03:31:52.316Z,19.90
2022-08-19T03:34:27.129Z,19.90
2022-08-19T03:36:56.830Z,19.90
2022-08-19T03:39:26.367Z,19.90
2022-08-19T03:42:33.031Z,19.90
2022-08-19T03:44:46.579Z,19.80
2022-08-19T03:47:17.433Z,19.80
2022-08-19T03:49:47.219Z,19.80
2022-08-19T03:52:16.488Z,19.80
2022-08-19T03:54:44.295Z,19.90
2022-08-19T03:57:12.465Z,19.90
2022-08-19T03:59:40.380Z,19.90
2022-08-19T04:02:11.058Z,19.90
2022-08-19T04:04:40.204Z,19.90
2022-08-19T04:07:10.308Z,19.90
2022-08-19T04:09:38.518Z,19.90
2022-08-19T04:12:07.520Z,19.80
2022-08-19T04:14:36.519Z,19.80
2022-08-19T04:17:06.302Z,19.80
2022-08-19T04:19:34.982Z,19.80
2022-08-19T04:22:03.158Z,19.80
2022-08-19T04:24:32.991Z,19.70
2022-08-19T04:27:02.977Z,19.60
2022-08-19T04:29:31.520Z,19.70
2022-08-19T04:32:00.428Z,19.70
2022-08-19T04:34:37.498Z,19.70
2022-08-19T04:37:25.595Z,19.70
2022-08-19T04:40:12.571Z,19.60
2022-08-19T04:42:40.421Z,19.70
2022-08-19T04:45:12.264Z,19.70
2022-08-19T04:47:47.890Z,19.70
2022-08-19T04:50:20.824Z,19.70
2022-08-19T04:52:48.796Z,19.80
2022-08-19T04:55:18.873Z,19.80
2022-08-19T04:57:46.754Z,19.80
2022-08-19T05:00:15.157Z,19.90
2022-08-19T05:02:43.191Z,19.90
2022-08-19T05:05:11.036Z,19.90
2022-08-19T05:07:39.061Z,19.90
2022-08-19T05:10:08.203Z,19.80
2022-08-19T05:12:37.742Z,19.90
2022-08-19T05:15:07.888Z,19.90
2022-08-19T05:17:38.735Z,19.90
2022-08-19T05:20:26.234Z,19.90
2022-08-19T05:22:54.327Z,19.90
2022-08-19T05:25:23.326Z,19.80
2022-08-19T05:27:52.601Z,20.00
2022-08-19T05:30:42.193Z,20.10
2022-08-19T05:33:10.006Z,20.10
2022-08-19T05:35:38.273Z,20.10
2022-08-19T05:38:07.659Z,20.20
2022-08-19T05:40:36.975Z,20.30
2022-08-19T05:43:08.312Z,20.30
2022-08-19T05:45:42.430Z,20.30
2022-08-19T05:48:12.139Z,20.20
2022-08-19T05:50:40.917Z,20.10
2022-08-19T05:53:09.681Z,20.00
2022-08-19T05:55:39.075Z,19.90
2022-08-19T05:58:08.894Z,19.90
2022-08-19T06:00:36.940Z,19.90
2022-08-19T06:03:12.470Z,20.00
2022-08-19T06:05:49.728Z,20.10
2022-08-19T06:08:34.335Z,20.20
2022-08-19T06:11:16.860Z,20.30
2022-08-19T06:13:51.427Z,20.30
2022-08-19T06:16:23.166Z,20.30
2022-08-19T06:18:53.342Z,20.20
2022-08-19T06:21:22.097Z,20.20
2022-08-19T06:23:51.930Z,20.10
2022-08-19T06:26:21.104Z,20.00
2022-08-19T06:28:51.277Z,19.90
2022-08-19T06:31:22.269Z,19.90
2022-08-19T06:33:51.152Z,19.90
2022-08-19T06:36:21.873Z,20.00
2022-08-19T06:38:53.802Z,20.00
2022-08-19T06:41:21.923Z,19.90
2022-08-19T06:43:52.569Z,20.00
2022-08-19T06:46:22.481Z,20.10
2022-08-19T06:48:50.780Z,20.00
2022-08-19T06:51:20.453Z,20.00
2022-08-19T06:56:21.850Z,19.90
2022-08-19T06:58:52.682Z,19.90
2022-08-19T07:01:21.573Z,20.00
2022-08-19T07:03:49.367Z,19.90
2022-08-19T07:06:43.095Z,19.80
2022-08-19T07:09:11.942Z,19.90
2022-08-19T07:11:40.295Z,19.80
2022-08-19T07:14:19.571Z,19.90
2022-08-19T07:16:49.697Z,19.90
2022-08-19T07:19:18.958Z,19.90
2022-08-19T07:21:51.932Z,19.90
2022-08-19T07:24:20.942Z,20.00
2022-08-19T07:26:51.873Z,20.00
2022-08-19T07:29:24.122Z,20.20
2022-08-19T07:31:55.823Z,20.20
2022-08-19T07:34:24.686Z,20.20
2022-08-19T07:36:52.944Z,20.20
2022-08-19T07:39:23.658Z,20.30
2022-08-19T07:41:52.260Z,20.20
2022-08-19T07:44:22.207Z,20.20
2022-08-19T07:46:53.339Z,20.20
2022-08-19T07:49:22.405Z,20.20
2022-08-19T07:51:52.207Z,20.30
2022-08-19T07:54:21.488Z,20.40
2022-08-19T07:56:50.400Z,20.30
2022-08-19T07:59:23.192Z,20.30
2022-08-19T08:01:51.363Z,20.40
2022-08-19T08:04:37.614Z,20.50
2022-08-19T08:07:23.833Z,20.50
2022-08-19T08:09:51.818Z,20.60
2022-08-19T08:12:34.153Z,20.70
2022-08-19T08:15:08.824Z,20.70
2022-08-19T08:17:49.409Z,20.80
2022-08-19T08:20:20.016Z,20.70
2022-08-19T08:23:06.463Z,20.60
2022-08-19T08:25:36.411Z,20.60
2022-08-19T08:28:04.991Z,20.60
2022-08-19T08:30:36.681Z,20.50
2022-08-19T08:33:05.383Z,20.40
2022-08-19T08:35:34.273Z,20.30
2022-08-19T08:38:04.558Z,20.50
2022-08-19T08:40:40.172Z,20.60
2022-08-19T08:43:11.976Z,20.60
2022-08-19T08:45:53.411Z,20.60
2022-08-19T08:48:26.488Z,20.60
2022-08-19T08:50:56.617Z,20.50
2022-08-19T08:53:29.581Z,20.50
2022-08-19T08:55:57.776Z,20.50
2022-08-19T08:58:31.649Z,20.60
2022-08-19T09:01:00.904Z,20.60
2022-08-19T09:03:31.495Z,20.50
2022-08-19T09:06:05.040Z,20.50
2022-08-19T09:08:45.910Z,20.40
2022-08-19T09:11:42.555Z,20.50
2022-08-19T09:14:47.455Z,20.60
2022-08-19T09:17:12.415Z,20.60
2022-08-19T09:19:51.773Z,20.60
2022-08-19T09:22:25.958Z,20.60
2022-08-19T09:24:55.537Z,20.40
2022-08-19T09:27:42.368Z,20.30
2022-08-19T09:30:16.264Z,20.40
2022-08-19T09:32:46.585Z,20.40
2022-08-19T09:35:16.097Z,20.50
2022-08-19T09:37:44.871Z,20.50
2022-08-19T09:40:14.280Z,20.50
2022-08-19T09:42:49.586Z,20.50
2022-08-19T09:45:22.853Z,20.50
2022-08-19T09:47:54.088Z,20.40
2022-08-19T09:50:24.258Z,20.30
2022-08-19T09:52:55.603Z,20.40
2022-08-19T09:55:31.208Z,20.50
2022-08-19T09:58:03.223Z,20.60
2022-08-19T10:00:32.594Z,20.60
2022-08-19T10:03:01.743Z,20.60
2022-08-19T10:05:54.466Z,20.60
2022-08-19T10:08:27.241Z,20.50
2022-08-19T10:10:56.484Z,20.60
2022-08-19T10:13:29.877Z,20.60
2022-08-19T10:16:03.816Z,20.70
2022-08-19T10:18:35.072Z,20.90
2022-08-19T10:21:11.865Z,20.90
2022-08-19T10:23:41.413Z,20.90
2022-08-19T10:26:09.233Z,20.90
2022-08-19T10:28:39.100Z,20.90
2022-08-19T10:31:08.289Z,20.90
2022-08-19T10:33:42.594Z,21.00
2022-08-19T10:36:24.478Z,20.80
2022-08-19T10:38:56.982Z,20.80
2022-08-19T10:41:28.445Z,20.80
2022-08-19T10:43:58.857Z,20.70
2022-08-19T10:46:33.675Z,20.80
2022-08-19T10:49:05.226Z,20.80
2022-08-19T10:51:51.234Z,21.00
2022-08-19T10:54:29.545Z,21.10
2022-08-19T10:57:00.133Z,21.20
2022-08-19T10:59:35.251Z,21.10
2022-08-19T11:02:06.001Z,21.20
2022-08-19T11:04:35.789Z,21.00
2022-08-19T11:07:04.529Z,21.00
2022-08-19T11:09:34.242Z,21.10
2022-08-19T11:12:02.789Z,21.20
2022-08-19T11:14:34.683Z,21.20
2022-08-19T11:17:03.416Z,21.10
2022-08-19T11:19:31.335Z,21.00
2022-08-19T11:22:03.649Z,21.00
2022-08-19T11:24:33.626Z,21.00
2022-08-19T11:27:07.032Z,21.10
2022-08-19T11:29:35.670Z,21.20
2022-08-19T11:32:07.278Z,21.30
2022-08-19T11:34:36.235Z,21.40
2022-08-19T11:37:06.671Z,21.40
2022-08-19T11:39:36.378Z,21.50
2022-08-19T11:42:26.874Z,21.40
2022-08-19T11:44:55.164Z,21.50
2022-08-19T11:47:23.070Z,21.60
2022-08-19T11:49:50.873Z,21.70
2022-08-19T11:52:20.563Z,21.70
2022-08-19T11:54:48.481Z,21.70
2022-08-19T11:57:17.842Z,21.70
2022-08-19T11:59:51.195Z,21.70
2022-08-19T12:02:19.977Z,21.80
2022-08-19T12:04:48.271Z,21.80
2022-08-19T12:07:16.275Z,21.80
2022-08-19T12:09:45.940Z,21.80
2022-08-19T12:12:16.684Z,21.90
2022-08-19T12:14:45.368Z,21.80
2022-08-19T12:17:14.407Z,21.70
2022-08-19T12:19:42.298Z,21.70
2022-08-19T12:22:10.094Z,21.70
2022-08-19T12:24:37.862Z,21.70
2022-08-19T12:27:12.876Z,21.90
2022-08-19T12:29:42.383Z,22.00
2022-08-19T12:32:10.474Z,22.00
2022-08-19T12:34:40.598Z,22.10
2022-08-19T12:37:08.777Z,22.20
2022-08-19T12:39:38.875Z,22.30
2022-08-19T12:42:09.726Z,22.30
2022-08-19T12:44:38.070Z,22.40
2022-08-19T12:47:06.905Z,22.50
2022-08-19T12:49:53.339Z,22.60
2022-08-19T12:52:24.840Z,22.50
2022-08-19T12:54:53.885Z,22.60
2022-08-19T12:57:32.866Z,22.70
2022-08-19T13:00:05.579Z,22.80
2022-08-19T13:02:38.535Z,22.90
2022-08-19T13:05:10.911Z,22.80
2022-08-19T13:07:39.372Z,22.70
2022-08-19T13:10:09.622Z,22.60
2022-08-19T13:12:39.130Z,22.50
2022-08-19T13:15:11.271Z,22.40
2022-08-19T13:17:40.700Z,22.60
2022-08-19T13:20:10.255Z,22.70
2022-08-19T13:22:38.497Z,22.90
2022-08-19T13:25:07.974Z,22.90
2022-08-19T13:27:36.374Z,22.90
2022-08-19T13:30:37.406Z,23.00
2022-08-19T13:33:16.466Z,23.20
2022-08-19T13:35:48.038Z,23.30
2022-08-19T13:38:19.062Z,23.60
2022-08-19T13:40:47.358Z,23.90
2022-08-19T13:43:22.728Z,24.20
2022-08-19T13:45:56.926Z,24.40
2022-08-19T13:48:27.516Z,24.60
2022-08-19T13:50:55.534Z,24.60
2022-08-19T13:53:23.428Z,24.50
2022-08-19T13:55:52.030Z,24.60
2022-08-19T13:58:19.864Z,24.30
2022-08-19T14:00:49.155Z,24.20
2022-08-19T14:03:18.432Z,24.20
2022-08-19T14:05:47.527Z,24.20
2022-08-19T14:08:15.651Z,24.30
2022-08-19T14:10:45.379Z,24.30
2022-08-19T14:13:16.772Z,24.40
2022-08-19T14:15:44.781Z,24.50
2022-08-19T14:18:12.637Z,24.50
2022-08-19T14:20:42.113Z,24.60
2022-08-19T14:23:10.098Z,24.70
2022-08-19T14:25:38.592Z,24.90
2022-08-19T14:28:07.635Z,24.90
2022-08-19T14:30:38.029Z,25.00
2022-08-19T14:33:08.000Z,24.90
2022-08-19T14:35:36.294Z,24.80
2022-08-19T14:38:07.021Z,24.80
2022-08-19T14:40:35.597Z,24.70
2022-08-19T14:43:06.062Z,24.50
2022-08-19T14:45:36.897Z,24.50
2022-08-19T14:48:06.096Z,24.40
2022-08-19T14:50:35.097Z,24.40
2022-08-19T14:53:11.903Z,24.40
2022-08-19T14:55:43.731Z,24.40
2022-08-19T14:58:29.783Z,24.40
2022-08-19T15:01:00.865Z,24.50
2022-08-19T15:03:29.079Z,24.50
2022-08-19T15:05:58.201Z,24.50
2022-08-19T15:08:28.701Z,24.40
2022-08-19T15:10:57.152Z,24.30
2022-08-19T15:13:25.962Z,24.30
2022-08-19T15:15:54.001Z,24.20
2022-08-19T15:18:22.604Z,24.30
2022-08-19T15:20:50.588Z,24.30
2022-08-19T15:23:22.120Z,24.20
2022-08-19T15:25:54.332Z,24.10
2022-08-19T15:28:22.661Z,24.00
2022-08-19T15:30:50.894Z,24.10
2022-08-19T15:33:20.481Z,24.00
2022-08-19T15:35:50.847Z,24.10
2022-08-19T15:38:21.914Z,24.10
2022-08-19T15:40:52.307Z,24.20
2022-08-19T15:43:23.092Z,24.20
2022-08-19T15:45:50.970Z,24.20
2022-08-19T15:48:18.845Z,24.20
2022-08-19T15:50:46.758Z,24.30
2022-08-19T15:53:14.566Z,24.30
2022-08-19T15:55:48.200Z,24.20
2022-08-19T15:58:35.092Z,24.20
2022-08-19T16:01:26.841Z,24.20
2022-08-19T16:04:15.604Z,24.10
2022-08-19T16:06:47.569Z,24.20
2022-08-19T16:09:16.388Z,24.10
2022-08-19T16:11:46.429Z,24.10
2022-08-19T16:14:16.557Z,24.00
2022-08-19T16:16:46.894Z,24.00
2022-08-19T16:19:16.746Z,23.90
2022-08-19T16:21:46.062Z,23.90
2022-08-19T16:24:15.100Z,23.90
2022-08-19T16:26:44.352Z,24.00
2022-08-19T16:29:13.565Z,24.00
2022-08-19T16:31:44.944Z,24.00
2022-08-19T16:34:14.163Z,24.00
2022-08-19T16:36:43.482Z,23.90
2022-08-19T16:39:12.260Z,23.90
2022-08-19T16:41:40.954Z,23.90
2022-08-19T16:44:10.928Z,24.00
2022-08-19T16:46:41.554Z,24.00
2022-08-19T16:49:13.426Z,23.80
2022-08-19T16:51:44.990Z,23.80
2022-08-19T16:54:13.028Z,23.80
2022-08-19T16:56:40.860Z,23.70
2022-08-19T16:59:08.807Z,23.80
2022-08-19T17:01:36.723Z,23.70
2022-08-19T17:04:05.163Z,23.70
2022-08-19T17:06:36.581Z,23.60
2022-08-19T17:09:07.869Z,23.80
2022-08-19T17:11:36.585Z,23.70
2022-08-19T17:14:05.952Z,23.50
2022-08-19T17:16:36.181Z,23.40
2022-08-19T17:19:06.769Z,23.40
2022-08-19T17:21:37.588Z,23.40
2022-08-19T17:24:07.342Z,23.40
2022-08-19T17:26:35.864Z,23.30
2022-08-19T17:29:04.550Z,23.30
2022-08-19T17:31:33.262Z,23.30
2022-08-19T17:34:01.521Z,23.30
2022-08-19T17:36:33.954Z,23.30
2022-08-19T17:39:05.434Z,23.20
2022-08-19T17:41:34.912Z,23.20
2022-08-19T17:44:03.373Z,23.20
2022-08-19T17:46:31.326Z,23.10
2022-08-19T17:48:59.338Z,23.00
2022-08-19T17:51:41.980Z,22.90
2022-08-19T17:54:13.982Z,22.90
2022-08-19T17:56:42.226Z,22.90
2022-08-19T17:59:14.242Z,23.00
2022-08-19T18:01:53.112Z,22.90
2022-08-19T18:04:23.951Z,22.90
2022-08-19T18:06:54.059Z,22.80
2022-08-19T18:09:26.178Z,22.80
2022-08-19T18:11:55.495Z,22.80
2022-08-19T18:14:33.028Z,22.70
2022-08-19T18:17:02.983Z,22.70
2022-08-19T18:19:42.208Z,22.60
2022-08-19T18:22:12.339Z,22.50
2022-08-19T18:24:42.201Z,22.40
2022-08-19T18:27:10.446Z,22.50
2022-08-19T18:29:40.073Z,22.50
2022-08-19T18:32:12.422Z,22.50
2022-08-19T18:34:41.030Z,22.40
2022-08-19T18:37:08.786Z,22.40
2022-08-19T18:39:54.957Z,22.30
2022-08-19T18:42:41.843Z,22.30
2022-08-19T18:45:27.922Z,22.30
2022-08-19T18:48:26.876Z,22.20
2022-08-19T18:51:00.116Z,22.20
2022-08-19T18:53:29.846Z,22.10
2022-08-19T18:55:57.922Z,22.10
2022-08-19T18:58:32.148Z,22.00
2022-08-19T19:01:00.661Z,21.90
2022-08-19T19:03:28.858Z,21.90
2022-08-19T19:05:56.822Z,21.80
2022-08-19T19:08:26.734Z,21.80
2022-08-19T19:10:56.778Z,21.80
2022-08-19T19:13:24.643Z,21.80
2022-08-19T19:15:54.374Z,21.80
2022-08-19T19:18:22.184Z,21.70
2022-08-19T19:20:49.978Z,21.70
2022-08-19T19:23:17.845Z,21.60
2022-08-19T19:25:50.187Z,21.50
2022-08-19T19:28:25.039Z,21.40
2022-08-19T19:30:57.517Z,21.30
2022-08-19T19:33:25.728Z,21.30
2022-08-19T19:35:53.509Z,21.20
2022-08-19T19:38:21.474Z,21.20
2022-08-19T19:40:49.306Z,21.10
2022-08-19T19:43:18.131Z,21.10
2022-08-19T19:45:48.160Z,21.00
2022-08-19T19:48:17.547Z,20.90
2022-08-19T19:50:53.997Z,20.90
2022-08-19T19:53:25.956Z,20.80
2022-08-19T19:55:54.821Z,20.80
2022-08-19T19:58:28.507Z,20.70
2022-08-19T20:00:57.580Z,20.70
2022-08-19T20:03:26.949Z,20.60
2022-08-19T20:05:55.084Z,20.60
2022-08-19T20:08:40.364Z,20.50
2022-08-19T20:11:08.542Z,20.40
2022-08-19T20:13:39.490Z,20.30
2022-08-19T20:16:07.862Z,20.30
2022-08-19T20:18:38.791Z,20.30
2022-08-19T20:21:07.076Z,20.30
2022-08-19T20:23:35.138Z,20.20
2022-08-19T20:26:03.029Z,20.20
2022-08-19T20:28:31.916Z,20.10
2022-08-19T20:31:00.252Z,20.10
2022-08-19T20:33:30.070Z,20.10
2022-08-19T20:35:59.442Z,20.10
2022-08-19T20:38:27.321Z,20.10
2022-08-19T20:40:55.229Z,20.10
2022-08-19T20:43:23.069Z,20.00
2022-08-19T20:45:50.934Z,20.00
2022-08-19T20:48:18.769Z,19.90
2022-08-19T20:50:47.610Z,19.90
2022-08-19T20:53:22.829Z,19.80
2022-08-19T20:55:51.657Z,19.80
2022-08-19T20:58:22.209Z,19.80
2022-08-19T21:00:52.342Z,19.80
2022-08-19T21:03:22.359Z,19.70
2022-08-19T21:05:50.558Z,19.70
2022-08-19T21:08:19.970Z,19.70
2022-08-19T21:10:49.236Z,19.60
2022-08-19T21:13:18.025Z,19.60
2022-08-19T21:15:46.158Z,19.50
2022-08-19T21:18:16.155Z,19.50
2022-08-19T21:20:45.089Z,19.40
2022-08-19T21:23:15.802Z,19.40
2022-08-19T21:25:54.254Z,19.30
2022-08-19T21:28:34.432Z,19.30
2022-08-19T21:31:05.220Z,19.30
2022-08-19T21:33:33.173Z,19.30
2022-08-19T21:36:02.484Z,19.20
2022-08-19T21:38:30.562Z,19.20
2022-08-19T21:41:00.244Z,19.20
2022-08-19T21:43:33.748Z,19.20
2022-08-19T21:46:01.685Z,19.20
2022-08-19T21:48:29.612Z,19.20
2022-08-19T21:50:57.422Z,19.20
2022-08-19T21:53:25.669Z,19.10
2022-08-19T21:56:03.618Z,19.10
2022-08-19T21:58:31.497Z,19.10
2022-08-19T22:00:59.869Z,19.10
2022-08-19T22:03:28.211Z,19.00
2022-08-19T22:05:56.092Z,19.00
2022-08-19T22:08:23.878Z,19.00
2022-08-19T22:10:52.531Z,19.00
2022-08-19T22:13:21.751Z,19.00
2022-08-19T22:15:51.802Z,19.00
2022-08-19T22:18:19.749Z,19.00
2022-08-19T22:20:48.743Z,19.00
2022-08-19T22:23:16.562Z,19.00
2022-08-19T22:25:46.746Z,19.00
2022-08-19T22:28:19.071Z,19.00
2022-08-19T22:30:57.352Z,19.00
2022-08-19T22:33:27.566Z,19.00
2022-08-19T22:35:55.629Z,19.00
2022-08-19T22:38:23.934Z,19.00
2022-08-19T22:40:53.706Z,19.00
2022-08-19T22:43:23.923Z,18.90
2022-08-19T22:45:53.528Z,18.80
2022-08-19T22:48:25.445Z,18.80
2022-08-19T22:51:11.942Z,18.80
2022-08-19T22:53:42.113Z,18.80
2022-08-19T22:56:15.168Z,18.80
2022-08-19T22:58:43.661Z,18.70
2022-08-19T23:01:14.704Z,18.70
2022-08-19T23:03:56.515Z,18.70
2022-08-19T23:06:29.749Z,18.60
2022-08-19T23:09:02.162Z,18.60
2022-08-19T23:11:35.487Z,18.60
2022-08-19T23:14:04.879Z,18.60
2022-08-19T23:16:35.304Z,18.60
2022-08-19T23:19:04.838Z,18.50
2022-08-19T23:21:32.734Z,18.50
2022-08-19T23:24:00.667Z,18.50
2022-08-19T23:26:30.708Z,18.40
2022-08-19T23:29:21.870Z,18.40
2022-08-19T23:31:49.815Z,18.40
2022-08-19T23:34:19.047Z,18.30
2022-08-19T23:36:48.365Z,18.30
2022-08-19T23:39:16.216Z,18.30
2022-08-19T23:41:44.081Z,18.30
2022-08-19T23:44:14.516Z,18.30
2022-08-19T23:46:54.621Z,18.30
2022-08-19T23:49:25.376Z,18.30
2022-08-19T23:51:54.253Z,18.20
2022-08-19T23:54:22.883Z,18.20
2022-08-19T23:57:14.645Z,18.20
2022-08-19T23:59:44.984Z,18.20
